createdAt,value
2023-04-09T00:01:20.695Z,5.29
2023-04-09T00:03:47.744Z,5.20
2023-04-09T00:06:14.861Z,5.12
2023-04-09T00:08:42.148Z,5.06
2023-04-09T00:11:14.488Z,5.01
2023-04-09T00:13:41.331Z,4.98
2023-04-09T00:16:09.243Z,4.95
2023-04-09T00:18:36.734Z,4.93
2023-04-09T00:21:03.807Z,4.94
2023-04-09T00:23:31.055Z,4.94
2023-04-09T00:25:58.090Z,4.99
2023-04-09T00:28:32.944Z,5.09
2023-04-09T00:31:06.828Z,5.14
2023-04-09T00:33:35.199Z,5.19
2023-04-09T00:36:05.350Z,5.29
2023-04-09T00:38:38.649Z,5.32
2023-04-09T00:41:08.643Z,5.27
2023-04-09T00:43:39.420Z,5.21
2023-04-09T00:46:06.530Z,5.15
2023-04-09T00:48:33.939Z,5.09
2023-04-09T00:51:01.224Z,5.06
2023-04-09T00:53:28.996Z,5.07
2023-04-09T00:55:56.308Z,5.07
2023-04-09T00:58:23.259Z,5.10
2023-04-09T01:00:50.738Z,5.13
2023-04-09T01:03:18.232Z,5.18
2023-04-09T01:06:24.549Z,5.20
2023-04-09T01:09:28.690Z,5.23
2023-04-09T01:12:10.144Z,5.13
2023-04-09T01:15:09.236Z,5.19
2023-04-09T01:17:47.041Z,5.21
2023-04-09T01:20:44.161Z,5.20
2023-04-09T01:23:11.002Z,5.15
2023-04-09T01:25:37.982Z,5.11
2023-04-09T01:28:18.354Z,5.04
2023-04-09T01:30:57.676Z,5.03
2023-04-09T01:33:26.407Z,5.05
2023-04-09T01:35:55.548Z,5.04
2023-04-09T01:38:23.696Z,4.98
2023-04-09T01:40:51.244Z,4.98
2023-04-09T01:43:19.694Z,5.01
2023-04-09T01:45:47.937Z,4.97
2023-04-09T01:48:16.275Z,4.93
2023-04-09T01:50:44.382Z,4.90
2023-04-09T01:53:11.701Z,4.88
2023-04-09T01:55:38.665Z,4.84
2023-04-09T01:58:05.582Z,4.78
2023-04-09T02:00:38.610Z,4.78
2023-04-09T02:03:15.630Z,4.79
2023-04-09T02:05:46.983Z,4.76
2023-04-09T02:08:21.176Z,4.72
2023-04-09T02:10:55.833Z,4.65
2023-04-09T02:13:24.856Z,4.60
2023-04-09T02:15:52.726Z,4.58
2023-04-09T02:18:28.812Z,4.60
2023-04-09T02:20:57.599Z,4.67
2023-04-09T02:23:25.799Z,4.76
2023-04-09T02:25:54.077Z,4.76
2023-04-09T02:28:21.107Z,4.69
2023-04-09T02:30:47.986Z,4.65
2023-04-09T02:33:15.013Z,4.59
2023-04-09T02:35:41.977Z,4.56
2023-04-09T02:38:14.054Z,4.52
2023-04-09T02:40:44.223Z,4.49
2023-04-09T02:43:11.179Z,4.47
2023-04-09T02:45:38.341Z,4.48
2023-04-09T02:48:05.655Z,4.47
2023-04-09T02:50:32.507Z,4.51
2023-04-09T02:52:59.358Z,4.60
2023-04-09T02:55:26.395Z,4.65
2023-04-09T02:57:53.246Z,4.69
2023-04-09T03:00:20.599Z,4.73
2023-04-09T03:02:47.629Z,4.75
2023-04-09T03:05:14.994Z,4.68
2023-04-09T03:07:41.870Z,4.60
2023-04-09T03:10:09.495Z,4.61
2023-04-09T03:12:36.340Z,4.60
2023-04-09T03:15:03.274Z,4.53
2023-04-09T03:17:32.302Z,4.50
2023-04-09T03:19:59.607Z,4.55
2023-04-09T03:22:26.458Z,4.55
2023-04-09T03:24:53.397Z,4.55
2023-04-09T03:27:20.231Z,4.50
2023-04-09T03:29:47.079Z,4.55
2023-04-09T03:32:13.939Z,4.63
2023-04-09T03:34:41.079Z,4.65
2023-04-09T03:37:07.906Z,4.64
2023-04-09T03:39:34.856Z,4.60
2023-04-09T03:42:02.150Z,4.60
2023-04-09T03:44:29.138Z,4.61
2023-04-09T03:46:56.849Z,4.62
2023-04-09T03:49:24.148Z,4.57
2023-04-09T03:51:51.193Z,4.56
2023-04-09T03:54:18.239Z,4.58
2023-04-09T03:56:45.287Z,4.59
2023-04-09T03:59:12.224Z,4.62
2023-04-09T04:01:40.946Z,4.66
2023-04-09T04:04:12.695Z,4.73
2023-04-09T04:06:45.484Z,4.75
2023-04-09T04:09:17.031Z,4.72
2023-04-09T04:11:43.941Z,4.75
2023-04-09T04:14:11.396Z,4.77
2023-04-09T04:16:40.871Z,4.79
2023-04-09T04:19:08.723Z,4.78
2023-04-09T04:21:36.167Z,4.71
2023-04-09T04:24:03.258Z,4.63
2023-04-09T04:26:30.300Z,4.60
2023-04-09T04:28:57.252Z,4.61
2023-04-09T04:31:24.256Z,4.65
2023-04-09T04:33:51.333Z,4.65
2023-04-09T04:36:18.689Z,4.67
2023-04-09T04:38:45.772Z,4.70
2023-04-09T04:41:13.364Z,4.68
2023-04-09T04:43:41.978Z,4.70
2023-04-09T04:46:09.071Z,4.74
2023-04-09T04:48:36.485Z,4.74
2023-04-09T04:51:04.164Z,4.73
2023-04-09T04:53:31.553Z,4.71
2023-04-09T04:55:58.889Z,4.68
2023-04-09T04:58:26.604Z,4.75
2023-04-09T05:00:53.962Z,4.85
2023-04-09T05:03:21.384Z,4.91
2023-04-09T05:05:48.553Z,4.97
2023-04-09T05:08:15.621Z,5.05
2023-04-09T05:10:47.042Z,5.09
2023-04-09T05:13:14.112Z,5.11
2023-04-09T05:15:41.453Z,5.13
2023-04-09T05:18:08.896Z,5.14
2023-04-09T05:20:35.831Z,5.16
2023-04-09T05:23:02.689Z,5.15
2023-04-09T05:25:29.471Z,5.13
2023-04-09T05:27:56.582Z,5.11
2023-04-09T05:30:23.486Z,5.12
2023-04-09T05:32:50.399Z,5.13
2023-04-09T05:35:17.671Z,5.17
2023-04-09T05:37:44.473Z,5.22
2023-04-09T05:40:12.500Z,5.28
2023-04-09T05:42:39.394Z,5.36
2023-04-09T05:45:06.956Z,5.42
2023-04-09T05:47:33.704Z,5.49
2023-04-09T05:50:00.525Z,5.59
2023-04-09T05:52:27.412Z,5.69
2023-04-09T05:54:54.125Z,5.77
2023-04-09T05:57:20.881Z,5.82
2023-04-09T05:59:47.592Z,5.85
2023-04-09T06:02:14.503Z,5.89
2023-04-09T06:04:41.631Z,5.93
2023-04-09T06:07:08.481Z,5.96
2023-04-09T06:09:35.698Z,5.97
2023-04-09T06:12:02.832Z,5.99
2023-04-09T06:14:29.825Z,6.06
2023-04-09T06:16:58.809Z,6.13
2023-04-09T06:19:25.856Z,6.17
2023-04-09T06:21:52.626Z,6.22
2023-04-09T06:24:19.447Z,6.29
2023-04-09T06:26:46.406Z,6.35
2023-04-09T06:29:13.221Z,6.43
2023-04-09T06:31:40.211Z,6.51
2023-04-09T06:34:07.145Z,6.57
2023-04-09T06:36:34.870Z,6.64
2023-04-09T06:39:01.830Z,6.71
2023-04-09T06:41:29.067Z,6.84
2023-04-09T06:43:55.994Z,6.97
2023-04-09T06:46:24.390Z,7.10
2023-04-09T06:48:51.569Z,7.20
2023-04-09T06:51:18.460Z,7.33
2023-04-09T06:53:46.170Z,7.43
2023-04-09T06:56:12.965Z,7.50
2023-04-09T06:58:39.791Z,7.57
2023-04-09T07:01:07.081Z,7.58
2023-04-09T07:03:34.134Z,7.50
2023-04-09T07:06:01.882Z,7.47
2023-04-09T07:08:29.048Z,7.57
2023-04-09T07:10:56.574Z,7.60
2023-04-09T07:13:23.428Z,7.61
2023-04-09T07:15:50.835Z,7.68
2023-04-09T07:18:17.807Z,7.73
2023-04-09T07:20:44.763Z,7.79
2023-04-09T07:23:12.419Z,7.91
2023-04-09T07:25:39.358Z,8.03
2023-04-09T07:28:06.491Z,8.11
2023-04-09T07:30:33.378Z,8.20
2023-04-09T07:33:00.720Z,8.26
2023-04-09T07:35:27.735Z,8.29
2023-04-09T07:37:55.215Z,8.34
2023-04-09T07:40:22.134Z,8.36
2023-04-09T07:42:50.010Z,8.40
2023-04-09T07:45:17.539Z,8.42
2023-04-09T07:47:44.514Z,8.41
2023-04-09T07:50:12.397Z,8.48
2023-04-09T07:52:39.531Z,8.51
2023-04-09T07:55:07.088Z,8.57
2023-04-09T07:57:34.317Z,8.64
2023-04-09T08:00:01.974Z,8.73
2023-04-09T08:02:29.208Z,8.75
2023-04-09T08:04:56.788Z,8.88
2023-04-09T08:07:23.844Z,9.00
2023-04-09T08:09:50.979Z,9.03
2023-04-09T08:12:18.250Z,9.05
2023-04-09T08:14:49.207Z,9.14
2023-04-09T08:17:27.017Z,9.18
2023-04-09T08:19:58.309Z,9.19
2023-04-09T08:22:25.606Z,9.25
2023-04-09T08:24:53.780Z,9.34
2023-04-09T08:27:21.694Z,9.45
2023-04-09T08:29:49.215Z,9.47
2023-04-09T08:32:16.665Z,9.48
2023-04-09T08:34:43.765Z,9.50
2023-04-09T08:37:11.689Z,9.62
2023-04-09T08:39:38.563Z,9.70
2023-04-09T08:42:07.453Z,9.79
2023-04-09T08:44:34.596Z,9.86
2023-04-09T08:47:03.218Z,9.83
2023-04-09T08:49:30.320Z,9.99
2023-04-09T08:51:57.525Z,10.34
2023-04-09T08:54:38.406Z,10.71
2023-04-09T08:57:05.969Z,11.00
2023-04-09T08:59:37.319Z,11.08
2023-04-09T09:02:09.767Z,11.15
2023-04-09T09:04:51.401Z,11.17
2023-04-09T09:07:18.929Z,11.36
2023-04-09T09:10:00.554Z,11.32
2023-04-09T09:12:39.681Z,11.54
2023-04-09T09:15:27.967Z,12.08
2023-04-09T09:17:58.411Z,12.82
2023-04-09T09:20:27.628Z,13.37
2023-04-09T09:22:57.000Z,14.08
2023-04-09T09:25:25.080Z,14.35
2023-04-09T09:27:53.894Z,14.27
2023-04-09T09:30:23.060Z,14.23
2023-04-09T09:32:54.228Z,14.37
2023-04-09T09:35:22.130Z,14.27
2023-04-09T09:38:02.282Z,14.06
2023-04-09T09:40:30.528Z,14.07
2023-04-09T09:42:58.391Z,14.23
2023-04-09T09:45:26.455Z,14.40
2023-04-09T09:47:54.901Z,14.59
2023-04-09T09:50:26.081Z,14.53
2023-04-09T09:53:03.496Z,14.50
2023-04-09T09:55:38.503Z,14.46
2023-04-09T09:58:23.677Z,14.59
2023-04-09T10:00:57.978Z,14.81
2023-04-09T10:03:30.008Z,14.80
2023-04-09T10:06:09.097Z,14.57
2023-04-09T10:08:47.494Z,14.34
2023-04-09T10:11:14.630Z,14.32
2023-04-09T10:13:46.795Z,14.17
2023-04-09T10:16:14.722Z,14.08
2023-04-09T10:18:43.101Z,13.87
2023-04-09T10:21:23.802Z,13.75
2023-04-09T10:23:52.307Z,13.60
2023-04-09T10:26:20.776Z,13.44
2023-04-09T10:29:05.241Z,13.46
2023-04-09T10:32:03.403Z,13.50
2023-04-09T10:34:30.782Z,13.43
2023-04-09T10:37:00.061Z,13.38
2023-04-09T10:39:30.209Z,13.38
2023-04-09T10:42:09.903Z,13.31
2023-04-09T10:44:46.460Z,13.15
2023-04-09T10:47:33.228Z,13.24
2023-04-09T10:50:37.840Z,13.27
2023-04-09T10:53:06.695Z,13.16
2023-04-09T10:55:41.019Z,13.00
2023-04-09T10:58:14.816Z,12.91
2023-04-09T11:00:44.900Z,12.87
2023-04-09T11:03:30.793Z,12.57
2023-04-09T11:06:10.921Z,12.27
2023-04-09T11:08:39.286Z,12.24
2023-04-09T11:11:07.029Z,12.13
2023-04-09T11:13:34.773Z,11.95
2023-04-09T11:16:07.513Z,11.94
2023-04-09T11:18:37.574Z,11.79
2023-04-09T11:21:05.009Z,11.63
2023-04-09T11:23:33.200Z,11.47
2023-04-09T11:26:00.283Z,11.45
2023-04-09T11:28:28.105Z,11.51
2023-04-09T11:30:55.234Z,11.66
2023-04-09T11:33:22.732Z,11.60
2023-04-09T11:35:51.330Z,11.67
2023-04-09T11:38:18.235Z,11.94
2023-04-09T11:40:49.085Z,12.17
2023-04-09T11:43:18.254Z,12.44
2023-04-09T11:45:49.021Z,12.68
2023-04-09T11:48:18.726Z,12.78
2023-04-09T11:50:47.780Z,12.90
2023-04-09T11:53:19.295Z,12.93
2023-04-09T11:55:50.725Z,12.98
2023-04-09T11:58:18.349Z,13.08
2023-04-09T12:00:46.031Z,13.17
2023-04-09T12:03:14.226Z,13.19
2023-04-09T12:05:50.976Z,13.13
2023-04-09T12:08:23.981Z,12.64
2023-04-09T12:10:53.912Z,12.42
2023-04-09T12:13:21.949Z,12.38
2023-04-09T12:15:50.920Z,12.63
2023-04-09T12:18:17.841Z,12.89
2023-04-09T12:20:48.040Z,13.19
2023-04-09T12:23:16.798Z,13.42
2023-04-09T12:25:45.711Z,13.58
2023-04-09T12:28:18.798Z,13.56
2023-04-09T12:30:46.997Z,13.40
2023-04-09T12:33:13.839Z,13.05
2023-04-09T12:35:41.178Z,12.99
2023-04-09T12:38:08.478Z,13.03
2023-04-09T12:40:37.208Z,13.02
2023-04-09T12:43:04.516Z,12.92
2023-04-09T12:45:32.488Z,12.76
2023-04-09T12:47:59.598Z,12.63
2023-04-09T12:50:27.066Z,12.55
2023-04-09T12:52:54.082Z,12.63
2023-04-09T12:55:22.378Z,12.55
2023-04-09T12:57:50.746Z,12.36
2023-04-09T13:00:18.202Z,12.18
2023-04-09T13:02:45.964Z,12.20
2023-04-09T13:05:13.577Z,12.38
2023-04-09T13:07:42.856Z,12.47
2023-04-09T13:10:11.261Z,12.35
2023-04-09T13:12:38.139Z,12.35
2023-04-09T13:15:06.097Z,12.32
2023-04-09T13:17:33.127Z,12.22
2023-04-09T13:20:00.061Z,12.12
2023-04-09T13:22:27.029Z,12.03
2023-04-09T13:24:53.977Z,11.93
2023-04-09T13:27:21.502Z,11.72
2023-04-09T13:29:48.621Z,11.63
2023-04-09T13:32:16.074Z,11.61
2023-04-09T13:34:43.099Z,11.62
2023-04-09T13:37:10.139Z,11.63
2023-04-09T13:39:37.347Z,11.53
2023-04-09T13:42:12.586Z,11.27
2023-04-09T13:44:42.692Z,11.08
2023-04-09T13:47:11.483Z,10.99
2023-04-09T13:49:38.789Z,10.87
2023-04-09T13:52:06.475Z,10.68
2023-04-09T13:54:34.938Z,10.58
2023-04-09T13:57:02.704Z,10.56
2023-04-09T13:59:30.032Z,10.53
2023-04-09T14:01:57.053Z,10.54
2023-04-09T14:04:24.797Z,10.45
2023-04-09T14:06:51.899Z,10.38
2023-04-09T14:09:18.949Z,10.37
2023-04-09T14:11:45.948Z,10.41
2023-04-09T14:14:12.810Z,10.55
2023-04-09T14:16:39.739Z,10.63
2023-04-09T14:19:06.855Z,10.74
2023-04-09T14:21:34.462Z,10.79
2023-04-09T14:24:02.379Z,10.84
2023-04-09T14:26:29.743Z,10.88
2023-04-09T14:28:56.802Z,10.97
2023-04-09T14:31:23.848Z,11.07
2023-04-09T14:33:51.256Z,11.14
2023-04-09T14:36:18.620Z,11.22
2023-04-09T14:38:46.374Z,11.26
2023-04-09T14:41:13.364Z,11.20
2023-04-09T14:43:40.205Z,11.19
2023-04-09T14:46:12.008Z,11.16
2023-04-09T14:48:40.654Z,11.13
2023-04-09T14:51:11.344Z,11.05
2023-04-09T14:53:38.896Z,11.00
2023-04-09T14:56:06.968Z,11.00
2023-04-09T14:58:34.264Z,10.95
2023-04-09T15:01:01.623Z,10.93
2023-04-09T15:03:28.863Z,10.88
2023-04-09T15:05:56.421Z,10.86
2023-04-09T15:08:24.098Z,10.86
2023-04-09T15:10:51.556Z,10.84
2023-04-09T15:13:18.682Z,10.80
2023-04-09T15:15:46.332Z,10.76
2023-04-09T15:18:13.285Z,10.76
2023-04-09T15:20:41.099Z,10.69
2023-04-09T15:23:07.990Z,10.63
2023-04-09T15:25:35.583Z,10.58
2023-04-09T15:28:03.504Z,10.50
2023-04-09T15:30:31.286Z,10.35
2023-04-09T15:32:58.647Z,10.24
2023-04-09T15:35:29.998Z,10.14
2023-04-09T15:37:57.646Z,10.08
2023-04-09T15:40:24.798Z,10.04
2023-04-09T15:42:51.855Z,10.00
2023-04-09T15:45:18.883Z,9.97
2023-04-09T15:47:46.852Z,9.92
2023-04-09T15:50:26.276Z,9.85
2023-04-09T15:52:53.823Z,9.76
2023-04-09T15:55:20.901Z,9.69
2023-04-09T15:57:48.049Z,9.62
2023-04-09T16:00:15.744Z,9.54
2023-04-09T16:02:42.634Z,9.46
2023-04-09T16:05:10.133Z,9.38
2023-04-09T16:07:37.222Z,9.34
2023-04-09T16:10:05.088Z,9.30
2023-04-09T16:12:32.323Z,9.28
2023-04-09T16:14:59.654Z,9.25
2023-04-09T16:17:26.942Z,9.28
2023-04-09T16:19:53.787Z,9.33
2023-04-09T16:22:25.492Z,9.29
2023-04-09T16:25:03.382Z,9.25
2023-04-09T16:27:50.799Z,9.30
2023-04-09T16:30:26.622Z,9.34
2023-04-09T16:32:53.722Z,9.35
2023-04-09T16:35:21.118Z,9.34
2023-04-09T16:37:48.254Z,9.31
2023-04-09T16:40:15.769Z,9.22
2023-04-09T16:42:43.117Z,9.16
2023-04-09T16:45:11.444Z,9.15
2023-04-09T16:47:38.737Z,9.11
2023-04-09T16:50:10.700Z,9.11
2023-04-09T16:52:39.291Z,9.11
2023-04-09T16:55:08.364Z,9.12
2023-04-09T16:57:36.031Z,9.14
2023-04-09T17:00:05.595Z,9.14
2023-04-09T17:02:34.167Z,9.15
2023-04-09T17:05:01.221Z,9.13
2023-04-09T17:07:28.953Z,9.06
2023-04-09T17:09:56.843Z,8.98
2023-04-09T17:12:25.188Z,8.91
2023-04-09T17:14:52.308Z,8.81
2023-04-09T17:17:19.674Z,8.74
2023-04-09T17:19:47.032Z,8.69
2023-04-09T17:22:14.422Z,8.60
2023-04-09T17:24:41.214Z,8.54
2023-04-09T17:27:08.817Z,8.49
2023-04-09T17:29:36.553Z,8.48
2023-04-09T17:32:03.627Z,8.44
2023-04-09T17:34:30.729Z,8.42
2023-04-09T17:37:00.554Z,8.42
2023-04-09T17:39:30.090Z,8.38
2023-04-09T17:41:58.680Z,8.36
2023-04-09T17:44:25.623Z,8.31
2023-04-09T17:46:52.654Z,8.29
2023-04-09T17:49:19.760Z,8.23
2023-04-09T17:51:46.722Z,8.20
2023-04-09T17:54:14.151Z,8.19
2023-04-09T17:56:41.030Z,8.19
2023-04-09T17:59:08.212Z,8.19
2023-04-09T18:01:37.246Z,8.19
2023-04-09T18:04:04.747Z,8.20
2023-04-09T18:06:32.231Z,8.22
2023-04-09T18:08:59.135Z,8.23
2023-04-09T18:11:26.487Z,8.25
2023-04-09T18:13:53.355Z,8.27
2023-04-09T18:16:23.561Z,8.23
2023-04-09T18:18:50.771Z,8.18
2023-04-09T18:21:18.471Z,8.12
2023-04-09T18:23:53.005Z,8.07
2023-04-09T18:26:19.917Z,8.03
2023-04-09T18:28:46.965Z,7.98
2023-04-09T18:31:14.008Z,7.92
2023-04-09T18:33:41.356Z,7.87
2023-04-09T18:36:08.469Z,7.83
2023-04-09T18:38:37.265Z,7.81
2023-04-09T18:41:04.696Z,7.78
2023-04-09T18:43:31.696Z,7.72
2023-04-09T18:45:58.778Z,7.73
2023-04-09T18:48:26.302Z,7.75
2023-04-09T18:50:53.502Z,7.75
2023-04-09T18:53:20.625Z,7.70
2023-04-09T18:55:47.641Z,7.67
2023-04-09T18:58:16.141Z,7.61
2023-04-09T19:00:44.100Z,7.53
2023-04-09T19:03:11.502Z,7.47
2023-04-09T19:05:39.186Z,7.43
2023-04-09T19:08:07.186Z,7.39
2023-04-09T19:10:34.074Z,7.38
2023-04-09T19:13:00.962Z,7.38
2023-04-09T19:15:29.667Z,7.38
2023-04-09T19:17:57.287Z,7.36
2023-04-09T19:20:24.251Z,7.37
2023-04-09T19:22:54.644Z,7.33
2023-04-09T19:25:23.134Z,7.29
2023-04-09T19:27:50.247Z,7.25
2023-04-09T19:30:31.074Z,7.23
2023-04-09T19:32:57.870Z,7.21
2023-04-09T19:35:24.828Z,7.17
2023-04-09T19:37:52.310Z,7.16
2023-04-09T19:40:19.081Z,7.11
2023-04-09T19:42:46.049Z,7.07
2023-04-09T19:45:12.963Z,7.03
2023-04-09T19:47:39.757Z,6.97
2023-04-09T19:50:07.412Z,6.93
2023-04-09T19:52:34.308Z,6.92
2023-04-09T19:55:02.167Z,6.88
2023-04-09T19:57:29.142Z,6.87
2023-04-09T19:59:55.910Z,6.85
2023-04-09T20:02:24.099Z,6.84
2023-04-09T20:04:52.712Z,6.85
2023-04-09T20:07:19.838Z,6.86
2023-04-09T20:09:47.451Z,6.87
2023-04-09T20:12:14.492Z,6.85
2023-04-09T20:14:41.543Z,6.81
2023-04-09T20:17:10.282Z,6.74
2023-04-09T20:19:38.309Z,6.67
2023-04-09T20:22:05.765Z,6.60
2023-04-09T20:24:34.225Z,6.56
2023-04-09T20:27:02.225Z,6.51
2023-04-09T20:29:34.659Z,6.48
2023-04-09T20:32:13.141Z,6.46
2023-04-09T20:34:46.194Z,6.46
2023-04-09T20:37:22.303Z,6.49
2023-04-09T20:40:02.434Z,6.50
2023-04-09T20:42:41.945Z,6.49
2023-04-09T20:45:16.702Z,6.51
2023-04-09T20:47:46.412Z,6.54
2023-04-09T20:50:20.814Z,6.59
2023-04-09T20:52:49.713Z,6.62
2023-04-09T20:55:22.307Z,6.62
2023-04-09T20:57:58.564Z,6.59
2023-04-09T21:00:25.716Z,6.49
2023-04-09T21:02:52.740Z,6.46
2023-04-09T21:05:23.910Z,6.46
2023-04-09T21:07:53.111Z,6.39
2023-04-09T21:10:20.193Z,6.39
2023-04-09T21:12:47.071Z,6.38
2023-04-09T21:15:14.016Z,6.37
2023-04-09T21:17:41.152Z,6.39
2023-04-09T21:20:09.203Z,6.40
2023-04-09T21:22:36.142Z,6.45
2023-04-09T21:25:03.776Z,6.47
2023-04-09T21:27:31.495Z,6.48
2023-04-09T21:30:01.798Z,6.50
2023-04-09T21:32:29.027Z,6.54
2023-04-09T21:34:56.095Z,6.54
2023-04-09T21:37:24.893Z,6.52
2023-04-09T21:39:51.711Z,6.52
2023-04-09T21:42:18.500Z,6.53
2023-04-09T21:44:45.506Z,6.51
2023-04-09T21:47:12.448Z,6.46
2023-04-09T21:49:40.098Z,6.39
2023-04-09T21:52:14.687Z,6.37
2023-04-09T21:54:42.710Z,6.34
2023-04-09T21:57:10.889Z,6.33
2023-04-09T21:59:38.418Z,6.33
2023-04-09T22:02:06.206Z,6.36
2023-04-09T22:04:35.357Z,6.37
2023-04-09T22:07:03.061Z,6.39
2023-04-09T22:09:31.882Z,6.41
2023-04-09T22:12:00.013Z,6.43
2023-04-09T22:14:29.899Z,6.49
2023-04-09T22:16:58.572Z,6.52
2023-04-09T22:19:26.563Z,6.52
2023-04-09T22:21:53.787Z,6.50
2023-04-09T22:24:27.167Z,6.50
2023-04-09T22:26:54.208Z,6.45
2023-04-09T22:29:21.071Z,6.38
2023-04-09T22:31:47.941Z,6.30
2023-04-09T22:34:21.304Z,6.24
2023-04-09T22:36:49.147Z,6.22
2023-04-09T22:39:16.118Z,6.21
2023-04-09T22:41:43.328Z,6.21
2023-04-09T22:44:10.391Z,6.19
2023-04-09T22:46:37.681Z,6.20
2023-04-09T22:49:06.047Z,6.19
2023-04-09T22:51:34.998Z,6.20
2023-04-09T22:54:02.438Z,6.26
2023-04-09T22:56:32.067Z,6.30
2023-04-09T22:58:59.214Z,6.34
2023-04-09T23:01:27.398Z,6.36
2023-04-09T23:03:54.965Z,6.35
2023-04-09T23:06:22.935Z,6.34
2023-04-09T23:08:49.959Z,6.34
2023-04-09T23:11:16.797Z,6.33
2023-04-09T23:13:43.716Z,6.29
2023-04-09T23:16:11.319Z,6.30
2023-04-09T23:18:38.220Z,6.31
2023-04-09T23:21:09.289Z,6.35
2023-04-09T23:23:36.570Z,6.37
2023-04-09T23:26:04.392Z,6.40
2023-04-09T23:28:31.890Z,6.41
2023-04-09T23:30:59.108Z,6.45
2023-04-09T23:33:26.321Z,6.51
2023-04-09T23:35:53.420Z,6.53
2023-04-09T23:38:20.870Z,6.58
2023-04-09T23:40:49.395Z,6.60
2023-04-09T23:43:17.120Z,6.58
2023-04-09T23:45:44.879Z,6.53
2023-04-09T23:48:12.944Z,6.49
2023-04-09T23:50:41.372Z,6.45
2023-04-09T23:53:08.647Z,6.44
2023-04-09T23:55:38.879Z,6.44
2023-04-09T23:58:05.908Z,6.49
